createdAt,value
2022-12-13T00:01:55.095Z,25.25
2022-12-13T00:04:24.567Z,26.00
2022-12-13T00:06:53.852Z,22.50
2022-12-13T00:09:20.815Z,24.02
2022-12-13T00:11:49.606Z,23.65
2022-12-13T00:14:17.908Z,24.17
2022-12-13T00:16:49.317Z,27.75
2022-12-13T00:19:17.811Z,25.35
2022-12-13T00:21:44.982Z,25.48
2022-12-13T00:24:12.389Z,23.65
2022-12-13T00:26:39.510Z,23.98
2022-12-13T00:29:08.345Z,21.58
2022-12-13T00:31:58.570Z,27.20
2022-12-13T00:34:23.574Z,24.08
2022-12-13T00:36:50.522Z,26.48
2022-12-13T00:39:18.965Z,28.10
2022-12-13T00:41:46.740Z,23.42
2022-12-13T00:44:14.647Z,24.75
2022-12-13T00:46:42.018Z,25.38
2022-12-13T00:49:10.973Z,25.70
2022-12-13T00:51:38.620Z,22.73
2022-12-13T00:54:06.170Z,23.15
2022-12-13T00:56:33.890Z,24.73
2022-12-13T00:59:00.935Z,28.58
2022-12-13T01:01:32.414Z,28.00
2022-12-13T01:04:01.866Z,27.05
2022-12-13T01:06:40.932Z,29.77
2022-12-13T01:09:21.120Z,25.83
2022-12-13T01:11:49.233Z,26.20
2022-12-13T01:14:17.114Z,26.60
2022-12-13T01:16:44.115Z,25.13
2022-12-13T01:19:11.076Z,23.60
2022-12-13T01:21:38.135Z,23.88
2022-12-13T01:24:06.411Z,27.40
2022-12-13T01:26:33.765Z,25.92
2022-12-13T01:29:01.207Z,31.38
2022-12-13T01:31:28.963Z,27.00
2022-12-13T01:33:55.835Z,27.83
2022-12-13T01:36:27.144Z,28.33
2022-12-13T01:38:58.592Z,29.58
2022-12-13T01:41:28.654Z,28.67
2022-12-13T01:44:03.490Z,24.40
2022-12-13T01:46:34.748Z,30.00
2022-12-13T01:49:20.114Z,27.98
2022-12-13T01:52:04.891Z,25.30
2022-12-13T01:54:46.454Z,24.80
2022-12-13T01:57:18.975Z,29.85
2022-12-13T01:59:48.025Z,30.88
2022-12-13T02:02:16.037Z,30.15
2022-12-13T02:05:06.857Z,29.55
2022-12-13T02:07:38.047Z,30.48
2022-12-13T02:10:07.554Z,31.58
2022-12-13T02:12:37.575Z,32.17
2022-12-13T02:15:13.144Z,31.10
2022-12-13T02:18:10.749Z,31.75
2022-12-13T02:21:24.595Z,30.27
2022-12-13T02:24:38.078Z,31.10
2022-12-13T02:27:46.097Z,32.85
2022-12-13T02:30:26.957Z,28.45
2022-12-13T02:33:11.745Z,27.02
2022-12-13T02:36:08.715Z,30.15
2022-12-13T02:38:53.813Z,26.73
2022-12-13T02:41:49.075Z,27.95
2022-12-13T02:44:28.535Z,28.30
2022-12-13T02:47:02.674Z,26.70
2022-12-13T02:49:35.543Z,25.25
2022-12-13T02:52:03.481Z,26.80
2022-12-13T02:54:31.057Z,27.30
2022-12-13T02:57:00.251Z,25.50
2022-12-13T02:59:39.780Z,27.05
2022-12-13T03:02:31.099Z,29.75
2022-12-13T03:05:30.358Z,27.02
2022-12-13T03:08:31.628Z,25.92
2022-12-13T03:11:18.270Z,30.08
2022-12-13T03:13:52.274Z,30.45
2022-12-13T03:16:52.569Z,26.17
2022-12-13T03:19:20.312Z,25.20
2022-12-13T03:21:49.694Z,25.70
2022-12-13T03:24:20.291Z,23.67
2022-12-13T03:26:49.935Z,29.20
2022-12-13T03:29:23.766Z,21.95
2022-12-13T03:31:53.498Z,28.10
2022-12-13T03:34:23.152Z,29.58
2022-12-13T03:36:52.760Z,23.42
2022-12-13T03:39:21.551Z,29.90
2022-12-13T03:41:49.614Z,29.17
2022-12-13T03:44:16.645Z,29.25
2022-12-13T03:46:44.646Z,30.10
2022-12-13T03:49:16.863Z,31.10
2022-12-13T03:51:44.214Z,36.42
2022-12-13T03:54:11.096Z,32.47
2022-12-13T03:56:37.933Z,29.13
2022-12-13T03:59:04.760Z,27.63
2022-12-13T04:01:31.619Z,29.85
2022-12-13T04:03:58.399Z,32.08
2022-12-13T04:06:29.833Z,29.92
2022-12-13T04:08:59.624Z,29.83
2022-12-13T04:11:44.979Z,30.17
2022-12-13T04:14:12.347Z,32.50
2022-12-13T04:16:49.836Z,34.05
2022-12-13T04:19:16.709Z,28.90
2022-12-13T04:21:54.578Z,27.55
2022-12-13T04:24:31.741Z,28.25
2022-12-13T04:27:02.382Z,29.58
2022-12-13T04:29:34.182Z,31.02
2022-12-13T04:32:26.319Z,30.35
2022-12-13T04:34:52.726Z,29.42
2022-12-13T04:37:28.296Z,32.67
2022-12-13T04:40:00.526Z,29.23
2022-12-13T04:42:28.458Z,31.85
2022-12-13T04:44:55.271Z,32.65
2022-12-13T04:47:22.172Z,30.67
2022-12-13T04:49:49.089Z,30.40
2022-12-13T04:52:22.419Z,34.42
2022-12-13T04:54:55.812Z,29.17
2022-12-13T04:57:23.558Z,31.73
2022-12-13T04:59:50.373Z,27.90
2022-12-13T05:02:23.439Z,29.25
2022-12-13T05:04:53.557Z,31.30
2022-12-13T05:07:23.314Z,24.75
2022-12-13T05:09:50.112Z,26.90
2022-12-13T05:12:22.454Z,29.10
2022-12-13T05:14:53.901Z,34.58
2022-12-13T05:17:21.455Z,29.40
2022-12-13T05:19:48.454Z,29.13
2022-12-13T05:22:20.635Z,29.63
2022-12-13T05:24:48.935Z,30.05
2022-12-13T05:27:24.426Z,28.83
2022-12-13T05:30:03.285Z,26.90
2022-12-13T05:32:43.370Z,31.25
2022-12-13T05:35:22.854Z,25.23
2022-12-13T05:37:55.274Z,28.67
2022-12-13T05:40:27.603Z,28.75
2022-12-13T05:43:00.792Z,30.35
2022-12-13T05:45:30.959Z,30.48
2022-12-13T05:47:58.185Z,27.13
2022-12-13T05:50:25.618Z,28.20
2022-12-13T05:52:52.538Z,29.13
2022-12-13T05:55:19.682Z,27.38
2022-12-13T05:57:51.015Z,26.08
2022-12-13T06:00:28.916Z,25.52
2022-12-13T06:02:56.559Z,28.30
2022-12-13T06:05:27.586Z,27.13
2022-12-13T06:07:57.607Z,25.83
2022-12-13T06:10:35.059Z,26.88
2022-12-13T06:13:22.030Z,29.10
2022-12-13T06:15:51.922Z,27.58
2022-12-13T06:18:28.375Z,26.50
2022-12-13T06:21:02.229Z,26.25
2022-12-13T06:23:32.050Z,28.38
2022-12-13T06:25:59.134Z,26.08
2022-12-13T06:28:25.937Z,27.95
2022-12-13T06:30:52.849Z,25.25
2022-12-13T06:33:23.520Z,27.13
2022-12-13T06:35:52.516Z,29.55
2022-12-13T06:38:22.001Z,26.27
2022-12-13T06:41:32.063Z,28.65
2022-12-13T06:43:59.512Z,27.13
2022-12-13T06:46:26.569Z,28.80
2022-12-13T06:48:53.550Z,27.48
2022-12-13T06:51:22.981Z,26.00
2022-12-13T06:54:00.933Z,28.42
2022-12-13T06:56:28.691Z,26.05
2022-12-13T06:59:01.125Z,24.48
2022-12-13T07:01:37.056Z,26.92
2022-12-13T07:04:29.554Z,26.55
2022-12-13T07:06:55.847Z,26.60
2022-12-13T07:09:30.223Z,27.90
2022-12-13T07:11:57.154Z,27.73
2022-12-13T07:14:24.000Z,33.90
2022-12-13T07:16:50.725Z,27.77
2022-12-13T07:19:23.042Z,31.70
2022-12-13T07:21:51.909Z,26.33
2022-12-13T07:24:19.153Z,27.23
2022-12-13T07:26:46.634Z,27.60
2022-12-13T07:29:13.428Z,25.58
2022-12-13T07:31:49.283Z,27.35
2022-12-13T07:34:16.196Z,26.05
2022-12-13T07:36:43.029Z,29.42
2022-12-13T07:39:10.779Z,27.23
2022-12-13T07:41:37.638Z,26.65
2022-12-13T07:44:06.134Z,26.02
2022-12-13T07:46:34.306Z,29.52
2022-12-13T07:49:05.678Z,27.58
2022-12-13T07:51:35.172Z,28.98
2022-12-13T07:54:06.763Z,28.45
2022-12-13T07:56:35.261Z,29.20
2022-12-13T07:59:02.465Z,27.60
2022-12-13T08:01:34.669Z,25.13
2022-12-13T08:04:03.646Z,27.45
2022-12-13T08:06:35.353Z,34.45
2022-12-13T08:09:04.037Z,28.73
2022-12-13T08:11:31.371Z,29.73
2022-12-13T08:13:58.209Z,27.08
2022-12-13T08:16:27.157Z,29.52
2022-12-13T08:19:02.306Z,32.35
2022-12-13T08:21:57.172Z,29.85
2022-12-13T08:24:29.645Z,29.10
2022-12-13T08:27:01.123Z,29.48
2022-12-13T08:29:34.685Z,31.83
2022-12-13T08:32:06.062Z,30.67
2022-12-13T08:34:32.981Z,28.38
2022-12-13T08:37:02.651Z,27.73
2022-12-13T08:39:38.892Z,27.80
2022-12-13T08:42:16.505Z,30.63
2022-12-13T08:44:50.710Z,26.90
2022-12-13T08:47:24.070Z,29.33
2022-12-13T08:50:02.285Z,30.05
2022-12-13T08:52:39.519Z,28.92
2022-12-13T08:55:13.317Z,28.58
2022-12-13T08:57:41.873Z,29.60
2022-12-13T09:00:13.912Z,31.50
2022-12-13T09:02:40.844Z,32.40
2022-12-13T09:05:09.666Z,32.25
2022-12-13T09:07:39.567Z,33.33
2022-12-13T09:10:25.485Z,33.33
2022-12-13T09:13:01.537Z,30.85
2022-12-13T09:15:34.295Z,29.90
2022-12-13T09:18:04.892Z,35.13
2022-12-13T09:20:41.131Z,30.50
2022-12-13T09:23:21.596Z,32.53
2022-12-13T09:26:05.326Z,32.00
2022-12-13T09:28:36.914Z,32.03
2022-12-13T09:31:19.162Z,33.33
2022-12-13T09:33:46.801Z,29.85
2022-12-13T09:36:18.212Z,32.63
2022-12-13T09:38:45.824Z,34.22
2022-12-13T09:41:28.407Z,33.00
2022-12-13T09:44:30.614Z,32.45
2022-12-13T09:47:02.007Z,37.08
2022-12-13T09:49:43.112Z,33.85
2022-12-13T09:52:24.949Z,39.78
2022-12-13T09:54:57.475Z,38.72
2022-12-13T09:57:33.836Z,36.80
2022-12-13T10:00:07.953Z,41.35
2022-12-13T10:02:51.701Z,36.85
2022-12-13T10:05:39.433Z,43.15
2022-12-13T10:08:21.758Z,38.63
2022-12-13T10:10:51.682Z,40.45
2022-12-13T10:14:01.989Z,41.15
2022-12-13T10:16:42.099Z,43.70
2022-12-13T10:19:40.310Z,41.95
2022-12-13T10:22:15.604Z,41.53
2022-12-13T10:25:04.760Z,40.78
2022-12-13T10:27:40.418Z,45.00
2022-12-13T10:30:26.155Z,47.70
2022-12-13T10:32:57.127Z,44.47
2022-12-13T10:35:30.246Z,38.88
2022-12-13T10:38:20.633Z,45.58
2022-12-13T10:40:49.048Z,43.85
2022-12-13T10:43:29.981Z,40.58
2022-12-13T10:45:59.084Z,41.08
2022-12-13T10:48:40.646Z,42.60
2022-12-13T10:51:17.661Z,44.28
2022-12-13T10:53:51.919Z,43.13
2022-12-13T10:56:23.506Z,43.97
2022-12-13T10:59:23.397Z,42.60
2022-12-13T11:01:50.257Z,40.58
2022-12-13T11:04:35.903Z,46.38
2022-12-13T11:07:34.082Z,43.60
2022-12-13T11:10:27.016Z,43.42
2022-12-13T11:13:03.774Z,37.80
2022-12-13T11:15:35.861Z,40.35
2022-12-13T11:18:18.426Z,41.25
2022-12-13T11:21:11.751Z,39.75
2022-12-13T11:23:44.672Z,42.67
2022-12-13T11:26:24.366Z,38.38
2022-12-13T11:29:43.690Z,38.28
2022-12-13T11:32:43.758Z,37.88
2022-12-13T11:35:17.937Z,36.75
2022-12-13T11:38:37.356Z,37.80
2022-12-13T11:41:32.380Z,38.20
2022-12-13T11:44:29.445Z,39.72
2022-12-13T11:46:59.875Z,41.05
2022-12-13T11:49:41.149Z,39.95
2022-12-13T11:52:35.269Z,44.67
2022-12-13T11:55:11.650Z,41.22
2022-12-13T11:57:52.819Z,43.90
2022-12-13T12:00:37.352Z,38.80
2022-12-13T12:03:21.151Z,38.17
2022-12-13T12:05:55.923Z,43.55
2022-12-13T12:08:51.084Z,41.45
2022-12-13T12:11:44.671Z,38.30
2022-12-13T12:14:35.862Z,40.38
2022-12-13T12:17:06.210Z,35.92
2022-12-13T12:19:40.197Z,41.28
2022-12-13T12:23:08.277Z,35.80
2022-12-13T12:25:52.625Z,40.05
2022-12-13T12:29:20.272Z,37.47
2022-12-13T12:32:32.030Z,39.22
2022-12-13T12:36:16.330Z,36.70
2022-12-13T12:38:52.263Z,41.97
2022-12-13T12:41:45.523Z,36.47
2022-12-13T12:44:30.760Z,41.50
2022-12-13T12:50:45.863Z,35.97
2022-12-13T12:53:42.910Z,37.42
2022-12-13T12:56:15.642Z,37.40
2022-12-13T12:59:14.049Z,40.95
2022-12-13T13:02:07.911Z,41.85
2022-12-13T13:04:44.673Z,36.20
2022-12-13T13:07:24.101Z,39.88
2022-12-13T13:09:54.872Z,36.50
2022-12-13T13:12:29.151Z,44.50
2022-12-13T13:14:56.672Z,44.75
2022-12-13T13:17:26.196Z,57.88
2022-12-13T13:20:17.600Z,45.53
2022-12-13T13:22:53.754Z,51.95
2022-12-13T13:25:43.891Z,61.95
2022-12-13T13:28:22.577Z,58.22
2022-12-13T13:31:10.576Z,48.15
2022-12-13T13:33:51.334Z,46.33
2022-12-13T13:36:41.203Z,47.25
2022-12-13T13:39:36.274Z,49.33
2022-12-13T13:42:20.522Z,48.90
2022-12-13T13:44:50.129Z,50.10
2022-12-13T13:47:20.008Z,45.83
2022-12-13T13:50:08.664Z,43.55
2022-12-13T13:52:44.645Z,46.00
2022-12-13T13:56:00.167Z,48.35
2022-12-13T13:59:03.352Z,49.22
2022-12-13T14:02:05.522Z,44.17
2022-12-13T14:05:30.416Z,45.50
2022-12-13T14:08:20.508Z,40.60
2022-12-13T14:11:21.599Z,50.38
2022-12-13T14:14:00.342Z,43.28
2022-12-13T14:16:50.081Z,43.28
2022-12-13T14:20:12.731Z,45.90
2022-12-13T14:23:00.855Z,41.10
2022-12-13T14:26:13.997Z,48.75
2022-12-13T14:29:01.499Z,48.47
2022-12-13T14:31:41.763Z,41.90
2022-12-13T14:34:25.420Z,43.03
2022-12-13T14:37:18.508Z,48.95
2022-12-13T14:39:45.385Z,44.13
2022-12-13T14:42:33.953Z,50.53
2022-12-13T14:45:26.080Z,49.83
2022-12-13T14:47:54.636Z,48.25
2022-12-13T14:50:23.679Z,44.28
2022-12-13T14:52:50.667Z,46.05
2022-12-13T14:55:30.383Z,48.05
2022-12-13T14:58:02.778Z,47.05
2022-12-13T15:00:39.169Z,46.90
2022-12-13T15:03:07.284Z,44.67
2022-12-13T15:05:50.888Z,46.78
2022-12-13T15:08:20.298Z,45.58
2022-12-13T15:10:54.804Z,44.97
2022-12-13T15:13:46.833Z,45.58
2022-12-13T15:16:28.217Z,51.88
2022-12-13T15:19:30.293Z,47.28
2022-12-13T15:22:07.501Z,49.30
2022-12-13T15:24:46.861Z,45.95
2022-12-13T15:27:21.612Z,44.20
2022-12-13T15:29:51.013Z,49.72
2022-12-13T15:32:22.599Z,46.92
2022-12-13T15:34:51.259Z,50.00
2022-12-13T15:37:32.961Z,46.35
2022-12-13T15:40:08.326Z,49.38
2022-12-13T15:42:49.003Z,55.13
2022-12-13T15:45:34.780Z,52.92
2022-12-13T15:48:04.906Z,48.85
2022-12-13T15:50:35.026Z,52.05
2022-12-13T15:53:21.413Z,51.83
2022-12-13T15:55:48.265Z,50.63
2022-12-13T15:58:37.014Z,49.90
2022-12-13T16:01:07.443Z,49.47
2022-12-13T16:03:46.651Z,47.00
2022-12-13T16:06:22.222Z,48.80
2022-12-13T16:08:56.900Z,50.88
2022-12-13T16:11:36.106Z,46.60
2022-12-13T16:14:31.511Z,47.95
2022-12-13T16:17:19.532Z,53.42
2022-12-13T16:19:46.554Z,43.70
2022-12-13T16:22:13.434Z,49.85
2022-12-13T16:24:40.241Z,48.28
2022-12-13T16:27:09.096Z,46.63
2022-12-13T16:29:36.673Z,47.15
2022-12-13T16:32:08.432Z,51.58
2022-12-13T16:34:38.939Z,49.13
2022-12-13T16:37:08.840Z,46.33
2022-12-13T16:39:53.942Z,49.58
2022-12-13T16:42:21.090Z,42.83
2022-12-13T16:45:05.806Z,45.75
2022-12-13T16:47:46.380Z,43.65
2022-12-13T16:50:19.163Z,47.67
2022-12-13T16:52:46.613Z,48.67
2022-12-13T16:55:13.579Z,45.15
2022-12-13T16:57:40.560Z,50.15
2022-12-13T17:00:10.605Z,47.92
2022-12-13T17:02:38.216Z,46.95
2022-12-13T17:05:06.135Z,43.67
2022-12-13T17:07:35.375Z,43.25
2022-12-13T17:10:02.735Z,45.45
2022-12-13T17:12:29.510Z,39.33
2022-12-13T17:14:56.306Z,47.53
2022-12-13T17:17:23.262Z,41.75
2022-12-13T17:19:50.155Z,46.65
2022-12-13T17:22:17.036Z,43.45
2022-12-13T17:24:43.986Z,46.47
2022-12-13T17:27:10.873Z,49.33
2022-12-13T17:29:37.840Z,42.72
2022-12-13T17:32:05.239Z,42.03
2022-12-13T17:34:32.477Z,43.97
2022-12-13T17:36:59.310Z,43.38
2022-12-13T17:39:26.160Z,42.20
2022-12-13T17:41:54.848Z,47.83
2022-12-13T17:44:26.374Z,45.03
2022-12-13T17:46:55.651Z,38.70
2022-12-13T17:49:24.273Z,41.88
2022-12-13T17:51:53.828Z,43.90
2022-12-13T17:54:23.711Z,46.97
2022-12-13T17:56:51.667Z,45.95
2022-12-13T17:59:19.165Z,48.00
2022-12-13T18:01:46.637Z,47.60
2022-12-13T18:04:14.034Z,48.08
2022-12-13T18:06:42.476Z,42.45
2022-12-13T18:09:11.986Z,41.45
2022-12-13T18:11:39.710Z,43.03
2022-12-13T18:14:08.697Z,45.60
2022-12-13T18:16:38.349Z,40.55
2022-12-13T18:19:14.116Z,41.47
2022-12-13T18:21:43.168Z,42.10
2022-12-13T18:24:10.876Z,42.63
2022-12-13T18:26:37.696Z,41.72
2022-12-13T18:29:04.857Z,47.35
2022-12-13T18:31:31.879Z,46.40
2022-12-13T18:33:59.292Z,45.53
2022-12-13T18:36:26.511Z,44.97
2022-12-13T18:38:53.802Z,42.60
2022-12-13T18:41:24.725Z,48.55
2022-12-13T18:44:13.428Z,49.95
2022-12-13T18:46:44.761Z,46.35
2022-12-13T18:49:13.064Z,43.53
2022-12-13T18:51:39.806Z,43.05
2022-12-13T18:54:07.641Z,42.47
2022-12-13T18:56:34.386Z,45.83
2022-12-13T18:59:01.179Z,47.80
2022-12-13T19:01:28.577Z,44.78
2022-12-13T19:03:55.468Z,44.00
2022-12-13T19:06:27.735Z,39.75
2022-12-13T19:08:57.885Z,43.17
2022-12-13T19:11:28.038Z,44.03
2022-12-13T19:13:55.486Z,42.47
2022-12-13T19:16:25.520Z,43.38
2022-12-13T19:18:52.892Z,44.38
2022-12-13T19:21:22.053Z,43.85
2022-12-13T19:23:56.502Z,46.80
2022-12-13T19:26:27.032Z,39.50
2022-12-13T19:28:57.618Z,39.50
2022-12-13T19:31:30.961Z,43.53
2022-12-13T19:34:01.522Z,46.58
2022-12-13T19:36:29.816Z,45.33
2022-12-13T19:38:56.880Z,42.67
2022-12-13T19:41:24.234Z,44.33
2022-12-13T19:43:52.957Z,42.35
2022-12-13T19:46:20.290Z,40.15
2022-12-13T19:48:47.685Z,41.30
2022-12-13T19:51:14.927Z,38.25
2022-12-13T19:53:42.045Z,49.85
2022-12-13T19:56:15.117Z,44.63
2022-12-13T19:58:41.979Z,44.50
2022-12-13T20:01:09.515Z,47.20
2022-12-13T20:03:45.506Z,39.35
2022-12-13T20:06:17.265Z,42.55
2022-12-13T20:08:45.383Z,38.53
2022-12-13T20:11:23.287Z,42.30
2022-12-13T20:13:54.950Z,39.58
2022-12-13T20:16:25.251Z,39.15
2022-12-13T20:18:57.724Z,42.78
2022-12-13T20:21:25.315Z,43.63
2022-12-13T20:23:52.409Z,41.85
2022-12-13T20:26:24.442Z,45.42
2022-12-13T20:28:51.765Z,47.90
2022-12-13T20:31:26.386Z,41.58
2022-12-13T20:33:58.910Z,37.75
2022-12-13T20:36:28.655Z,40.53
2022-12-13T20:38:58.147Z,39.60
2022-12-13T20:41:29.323Z,37.60
2022-12-13T20:43:58.294Z,39.40
2022-12-13T20:46:26.876Z,39.53
2022-12-13T20:48:55.288Z,37.42
2022-12-13T20:51:26.417Z,35.03
2022-12-13T20:53:54.595Z,35.60
2022-12-13T20:56:27.979Z,38.03
2022-12-13T20:58:55.350Z,40.85
2022-12-13T21:01:33.140Z,37.63
2022-12-13T21:04:02.863Z,37.63
2022-12-13T21:06:32.372Z,34.72
2022-12-13T21:09:02.688Z,32.50
2022-12-13T21:11:46.824Z,35.53
2022-12-13T21:14:28.591Z,37.75
2022-12-13T21:17:01.130Z,41.88
2022-12-13T21:19:39.039Z,36.85
2022-12-13T21:22:07.531Z,39.85
2022-12-13T21:24:34.580Z,38.38
2022-12-13T21:27:01.687Z,37.22
2022-12-13T21:29:28.570Z,37.75
2022-12-13T21:31:56.097Z,39.63
2022-12-13T21:34:23.222Z,39.10
2022-12-13T21:36:52.309Z,31.77
2022-12-13T21:39:28.192Z,35.03
2022-12-13T21:41:56.041Z,39.63
2022-12-13T21:44:23.512Z,41.10
2022-12-13T21:49:37.875Z,40.88
2022-12-13T21:52:05.005Z,41.25
2022-12-13T21:54:31.796Z,38.13
2022-12-13T21:57:16.947Z,42.15
2022-12-13T21:59:43.750Z,40.47
2022-12-13T22:02:19.233Z,37.15
2022-12-13T22:04:52.437Z,38.22
2022-12-13T22:07:30.335Z,37.60
2022-12-13T22:09:59.038Z,35.10
2022-12-13T22:12:31.951Z,35.30
2022-12-13T22:14:59.053Z,32.50
2022-12-13T22:17:34.636Z,31.65
2022-12-13T22:20:02.043Z,34.63
2022-12-13T22:22:29.122Z,31.02
2022-12-13T22:24:56.068Z,30.67
2022-12-13T22:27:26.232Z,30.25
2022-12-13T22:29:58.902Z,30.75
2022-12-13T22:32:28.962Z,33.97
2022-12-13T22:34:56.713Z,37.05
2022-12-13T22:37:24.696Z,37.55
2022-12-13T22:39:51.635Z,37.47
2022-12-13T22:42:19.512Z,31.73
2022-12-13T22:44:46.317Z,30.55
2022-12-13T22:47:13.075Z,29.67
2022-12-13T22:49:40.163Z,31.85
2022-12-13T22:52:08.443Z,35.00
2022-12-13T22:54:35.722Z,31.52
2022-12-13T22:57:02.739Z,32.65
2022-12-13T22:59:29.733Z,31.00
2022-12-13T23:02:01.986Z,33.03
2022-12-13T23:04:32.302Z,28.60
2022-12-13T23:06:59.081Z,30.63
2022-12-13T23:09:25.906Z,31.08
2022-12-13T23:12:11.268Z,30.77
2022-12-13T23:14:38.017Z,31.98
2022-12-13T23:17:05.783Z,27.17
2022-12-13T23:19:50.078Z,32.63
2022-12-13T23:22:20.594Z,29.10
2022-12-13T23:24:47.380Z,29.92
2022-12-13T23:27:14.407Z,30.83
2022-12-13T23:29:41.187Z,32.00
2022-12-13T23:32:08.128Z,28.83
2022-12-13T23:34:35.058Z,29.27
2022-12-13T23:37:01.826Z,27.80
2022-12-13T23:39:28.810Z,27.90
2022-12-13T23:41:55.711Z,29.95
2022-12-13T23:44:22.711Z,28.35
2022-12-13T23:46:49.536Z,29.30
2022-12-13T23:49:17.899Z,31.10
2022-12-13T23:51:44.785Z,28.83
2022-12-13T23:54:16.228Z,25.45
2022-12-13T23:56:43.329Z,24.70
2022-12-13T23:59:10.706Z,26.70
